Time,TemperatureF,DewpointF,PressureIn,WindDirection,WindDirectionDegrees,WindSpeedMPH,WindSpeedGustMPH,Humidity,HourlyPrecipIn,Conditions,Clouds,dailyrainin,SoftwareType,DateUTC
2013-11-30 00:04:00,27.5,22.5,30.31,SE,138,4.0,4.0,81,0.00,,,0.00,meteobridge,2013-11-30 06:04:00,
2013-11-30 00:09:00,27.3,22.3,30.31,SE,133,2.9,4.9,81,0.00,,,0.00,meteobridge,2013-11-30 06:09:00,
2013-11-30 00:14:00,27.1,22.5,30.30,ESE,115,2.9,4.9,82,0.00,,,0.00,meteobridge,2013-11-30 06:14:00,
2013-11-30 00:19:00,27.1,22.5,30.30,SSE,158,2.9,4.9,82,0.00,,,0.00,meteobridge,2013-11-30 06:19:00,
2013-11-30 00:24:00,27.1,22.5,30.30,SE,145,2.9,6.0,82,0.00,,,0.00,meteobridge,2013-11-30 06:24:00,
2013-11-30 00:29:00,27.1,22.5,30.29,SE,131,4.9,4.9,82,0.00,,,0.00,meteobridge,2013-11-30 06:29:00,
2013-11-30 00:34:00,27.3,22.6,30.29,SE,135,4.0,6.0,82,0.00,,,0.00,meteobridge,2013-11-30 06:34:00,
2013-11-30 00:39:00,27.3,22.6,30.29,SE,143,6.0,6.9,82,0.00,,,0.00,meteobridge,2013-11-30 06:39:00,
2013-11-30 00:44:00,27.7,22.6,30.28,SE,135,2.0,8.1,81,0.00,,,0.00,meteobridge,2013-11-30 06:44:00,
2013-11-30 00:49:00,27.5,22.5,30.28,SE,135,4.0,6.0,81,0.00,,,0.00,meteobridge,2013-11-30 06:49:00,
2013-11-30 00:54:00,27.7,22.6,30.28,ESE,122,4.9,6.9,81,0.00,,,0.00,meteobridge,2013-11-30 06:54:00,
2013-11-30 00:59:00,27.5,22.5,30.27,SSE,160,6.0,6.9,81,0.00,,,0.00,meteobridge,2013-11-30 06:59:00,
2013-11-30 01:04:00,27.5,22.5,30.27,SE,129,6.0,8.1,81,0.00,,,0.00,meteobridge,2013-11-30 07:04:00,
2013-11-30 01:09:00,27.5,22.5,30.27,SSE,161,4.9,4.9,81,0.00,,,0.00,meteobridge,2013-11-30 07:09:00,
2013-11-30 01:14:00,27.5,22.8,30.27,SSW,193,4.0,6.0,82,0.00,,,0.00,meteobridge,2013-11-30 07:14:00,
2013-11-30 01:19:00,27.5,22.8,30.27,SSE,149,2.9,6.0,82,0.00,,,0.00,meteobridge,2013-11-30 07:19:00,
2013-11-30 01:24:00,27.5,22.8,30.27,SE,134,4.0,8.1,82,0.00,,,0.00,meteobridge,2013-11-30 07:24:00,
2013-11-30 01:29:00,27.3,22.6,30.27,SSE,158,2.9,6.0,82,0.00,,,0.00,meteobridge,2013-11-30 07:29:00,
2013-11-30 01:34:00,27.3,22.6,30.27,SSE,157,4.0,4.9,82,0.00,,,0.00,meteobridge,2013-11-30 07:34:00,
2013-11-30 01:40:00,27.1,22.5,30.27,SE,129,6.9,6.9,82,0.00,,,0.00,meteobridge,2013-11-30 07:40:00,
2013-11-30 01:45:00,27.1,22.5,30.27,SE,134,4.0,4.9,82,0.00,,,0.00,meteobridge,2013-11-30 07:45:00,
2013-11-30 01:50:00,27.0,22.5,30.27,SE,126,2.0,4.0,83,0.00,,,0.00,meteobridge,2013-11-30 07:50:00,
2013-11-30 01:55:00,27.0,22.5,30.27,SSE,162,2.0,4.9,83,0.00,,,0.00,meteobridge,2013-11-30 07:55:00,
2013-11-30 02:00:00,26.8,22.3,30.27,SSE,150,4.0,6.0,83,0.00,,,0.00,meteobridge,2013-11-30 08:00:00,
2013-11-30 02:05:00,26.8,22.3,30.26,SSE,162,0.9,2.9,83,0.00,,,0.00,meteobridge,2013-11-30 08:05:00,
2013-11-30 02:10:00,26.8,22.3,30.26,SE,134,2.9,2.9,83,0.00,,,0.00,meteobridge,2013-11-30 08:10:00,
2013-11-30 02:15:00,26.4,21.9,30.26,South,174,0.0,2.9,83,0.00,,,0.00,meteobridge,2013-11-30 08:15:00,
2013-11-30 02:20:00,26.4,22.3,30.26,ESE,113,0.9,4.9,84,0.00,,,0.00,meteobridge,2013-11-30 08:20:00,
2013-11-30 02:25:00,26.4,21.9,30.26,SE,141,2.9,4.9,83,0.00,,,0.00,meteobridge,2013-11-30 08:25:00,
2013-11-30 02:30:00,26.4,22.3,30.26,SSE,160,2.9,6.0,84,0.00,,,0.00,meteobridge,2013-11-30 08:30:00,
2013-11-30 02:35:00,26.4,22.3,30.26,SSE,149,2.0,6.9,84,0.00,,,0.00,meteobridge,2013-11-30 08:35:00,
2013-11-30 02:40:00,26.2,22.1,30.26,SE,138,2.9,4.9,84,0.00,,,0.00,meteobridge,2013-11-30 08:40:00,
2013-11-30 02:45:00,26.1,21.9,30.25,ESE,117,4.0,4.0,84,0.00,,,0.00,meteobridge,2013-11-30 08:45:00,
2013-11-30 02:50:00,25.9,21.9,30.25,SE,134,4.9,4.9,85,0.00,,,0.00,meteobridge,2013-11-30 08:50:00,
2013-11-30 02:55:00,25.7,21.7,30.25,ESE,105,2.0,4.0,85,0.00,,,0.00,meteobridge,2013-11-30 08:55:00,
2013-11-30 03:00:00,25.7,21.7,30.25,SE,130,2.9,4.9,85,0.00,,,0.00,meteobridge,2013-11-30 09:00:00,
2013-11-30 03:05:00,25.7,21.7,30.24,SE,126,2.9,6.0,85,0.00,,,0.00,meteobridge,2013-11-30 09:05:00,
2013-11-30 03:10:00,25.7,21.7,30.24,SE,143,4.0,6.0,85,0.00,,,0.00,meteobridge,2013-11-30 09:10:00,
2013-11-30 03:15:00,25.7,21.7,30.24,SE,129,4.0,4.9,85,0.00,,,0.00,meteobridge,2013-11-30 09:15:00,
2013-11-30 03:20:00,25.7,21.7,30.24,SE,127,2.0,4.9,85,0.00,,,0.00,meteobridge,2013-11-30 09:20:00,
2013-11-30 03:25:00,25.5,21.6,30.23,ESE,110,2.9,6.0,85,0.00,,,0.00,meteobridge,2013-11-30 09:25:00,
2013-11-30 03:30:00,25.5,21.9,30.23,SE,135,2.9,4.9,86,0.00,,,0.00,meteobridge,2013-11-30 09:30:00,
2013-11-30 03:35:00,25.3,21.7,30.23,SSE,152,2.9,4.0,86,0.00,,,0.00,meteobridge,2013-11-30 09:35:00,
2013-11-30 03:40:00,25.2,21.6,30.23,SE,134,2.9,4.9,86,0.00,,,0.00,meteobridge,2013-11-30 09:40:00,
2013-11-30 03:45:00,25.0,21.4,30.22,SE,141,2.9,4.0,86,0.00,,,0.00,meteobridge,2013-11-30 09:45:00,
2013-11-30 03:51:00,24.8,21.2,30.22,SSE,158,2.0,4.0,86,0.00,,,0.00,meteobridge,2013-11-30 09:51:00,
2013-11-30 03:56:00,24.6,21.4,30.22,SE,138,4.0,4.0,87,0.00,,,0.00,meteobridge,2013-11-30 09:56:00,
2013-11-30 04:01:00,24.6,21.4,30.22,SE,143,2.0,4.0,87,0.00,,,0.00,meteobridge,2013-11-30 10:01:00,
2013-11-30 04:06:00,24.6,21.4,30.22,SE,136,0.9,4.0,87,0.00,,,0.00,meteobridge,2013-11-30 10:06:00,
2013-11-30 04:11:00,24.6,21.4,30.21,ESE,115,0.9,2.9,87,0.00,,,0.00,meteobridge,2013-11-30 10:11:00,
2013-11-30 04:16:00,24.4,21.2,30.21,SSE,150,2.0,2.0,87,0.00,,,0.00,meteobridge,2013-11-30 10:16:00,
2013-11-30 04:21:00,24.4,21.2,30.22,ESE,122,0.9,2.9,87,0.00,,,0.00,meteobridge,2013-11-30 10:21:00,
2013-11-30 04:26:00,24.3,21.2,30.21,SE,129,2.9,2.9,88,0.00,,,0.00,meteobridge,2013-11-30 10:26:00,
2013-11-30 04:31:00,24.1,21.0,30.21,SSE,155,2.0,4.0,88,0.00,,,0.00,meteobridge,2013-11-30 10:31:00,
2013-11-30 04:36:00,24.1,21.0,30.21,ESE,114,4.0,4.0,88,0.00,,,0.00,meteobridge,2013-11-30 10:36:00,
2013-11-30 04:41:00,24.1,21.0,30.20,SE,124,4.0,4.0,88,0.00,,,0.00,meteobridge,2013-11-30 10:41:00,
2013-11-30 04:46:00,24.1,21.0,30.20,SE,129,4.0,4.0,88,0.00,,,0.00,meteobridge,2013-11-30 10:46:00,
2013-11-30 04:51:00,24.3,21.6,30.20,SSE,149,2.9,4.0,89,0.00,,,0.00,meteobridge,2013-11-30 10:51:00,
2013-11-30 04:56:00,24.3,21.2,30.20,SSE,158,2.9,4.0,88,0.00,,,0.00,meteobridge,2013-11-30 10:56:00,
2013-11-30 05:01:00,24.4,21.4,30.19,SE,136,2.9,4.9,88,0.00,,,0.00,meteobridge,2013-11-30 11:01:00,
2013-11-30 05:06:00,24.6,21.9,30.19,SE,134,4.0,4.0,89,0.00,,,0.00,meteobridge,2013-11-30 11:06:00,
2013-11-30 05:11:00,24.6,21.6,30.19,SE,131,2.0,4.0,88,0.00,,,0.00,meteobridge,2013-11-30 11:11:00,
2013-11-30 05:16:00,25.0,21.9,30.19,SSE,165,0.9,4.0,88,0.00,,,0.00,meteobridge,2013-11-30 11:16:00,
2013-11-30 05:21:00,25.0,21.9,30.19,SSE,158,2.9,4.9,88,0.00,,,0.00,meteobridge,2013-11-30 11:21:00,
2013-11-30 05:26:00,25.2,22.1,30.19,SSE,157,2.0,4.9,88,0.00,,,0.00,meteobridge,2013-11-30 11:26:00,
2013-11-30 05:31:00,25.2,22.1,30.19,SE,129,2.9,4.0,88,0.00,,,0.00,meteobridge,2013-11-30 11:31:00,
2013-11-30 05:36:00,25.2,22.1,30.18,SSE,147,2.0,4.9,88,0.00,,,0.00,meteobridge,2013-11-30 11:36:00,
2013-11-30 05:42:00,25.2,22.1,30.19,SE,129,4.0,4.0,88,0.00,,,0.00,meteobridge,2013-11-30 11:42:00,
2013-11-30 05:47:00,25.2,22.1,30.18,SE,140,2.9,4.0,88,0.00,,,0.00,meteobridge,2013-11-30 11:47:00,
2013-11-30 05:52:00,25.2,22.1,30.18,SSE,160,2.9,4.9,88,0.00,,,0.00,meteobridge,2013-11-30 11:52:00,
2013-11-30 05:57:00,25.0,21.9,30.18,ESE,119,4.0,4.9,88,0.00,,,0.00,meteobridge,2013-11-30 11:57:00,
2013-11-30 06:02:00,25.0,21.9,30.18,SE,133,2.9,4.0,88,0.00,,,0.00,meteobridge,2013-11-30 12:02:00,
2013-11-30 06:07:00,25.0,21.9,30.18,SSE,147,4.0,4.0,88,0.00,,,0.00,meteobridge,2013-11-30 12:07:00,
2013-11-30 06:12:00,25.0,22.3,30.18,SSE,147,4.0,4.9,89,0.00,,,0.00,meteobridge,2013-11-30 12:12:00,
2013-11-30 06:17:00,25.0,21.9,30.18,SSE,147,2.0,2.9,88,0.00,,,0.00,meteobridge,2013-11-30 12:17:00,
2013-11-30 06:22:00,25.0,22.3,30.17,SE,132,2.9,2.9,89,0.00,,,0.00,meteobridge,2013-11-30 12:22:00,
2013-11-30 06:27:00,25.0,22.3,30.18,SSE,161,0.9,2.9,89,0.00,,,0.00,meteobridge,2013-11-30 12:27:00,
2013-11-30 06:32:00,25.0,22.3,30.18,SE,129,2.0,2.9,89,0.00,,,0.00,meteobridge,2013-11-30 12:32:00,
2013-11-30 06:37:00,25.0,22.3,30.18,SSE,165,2.0,4.0,89,0.00,,,0.00,meteobridge,2013-11-30 12:37:00,
2013-11-30 06:42:00,25.0,22.3,30.18,SSE,156,0.9,2.9,89,0.00,,,0.00,meteobridge,2013-11-30 12:42:00,
2013-11-30 06:47:00,25.0,22.3,30.17,SSE,150,0.9,2.0,89,0.00,,,0.00,meteobridge,2013-11-30 12:47:00,
2013-11-30 06:52:00,25.0,22.3,30.17,SSE,162,2.0,2.0,89,0.00,,,0.00,meteobridge,2013-11-30 12:52:00,
2013-11-30 06:57:00,25.0,22.3,30.17,SSE,165,2.9,2.9,89,0.00,,,0.00,meteobridge,2013-11-30 12:57:00,
2013-11-30 07:02:00,25.0,22.3,30.17,SSE,157,0.9,2.9,89,0.00,,,0.00,meteobridge,2013-11-30 13:02:00,
2013-11-30 07:08:00,25.2,22.6,30.17,SSE,154,0.0,2.0,90,0.00,,,0.00,meteobridge,2013-11-30 13:08:00,
2013-11-30 07:13:00,25.2,22.5,30.17,SE,141,0.9,2.0,89,0.00,,,0.00,meteobridge,2013-11-30 13:13:00,
2013-11-30 07:18:00,25.2,22.6,30.18,SSE,164,0.0,0.0,90,0.00,,,0.00,meteobridge,2013-11-30 13:18:00,
2013-11-30 07:23:00,25.2,22.6,30.18,SSE,156,0.9,2.0,90,0.00,,,0.00,meteobridge,2013-11-30 13:23:00,
2013-11-30 07:28:00,25.2,22.6,30.18,South,188,0.9,2.0,90,0.00,,,0.00,meteobridge,2013-11-30 13:28:00,
2013-11-30 07:33:00,25.2,22.6,30.18,SSE,163,2.0,2.0,90,0.00,,,0.00,meteobridge,2013-11-30 13:33:00,
2013-11-30 07:38:00,25.2,22.5,30.18,SSE,157,0.9,2.0,89,0.00,,,0.00,meteobridge,2013-11-30 13:38:00,
2013-11-30 07:43:00,25.3,22.8,30.18,SSE,152,0.9,2.0,90,0.00,,,0.00,meteobridge,2013-11-30 13:43:00,
2013-11-30 07:48:00,25.5,22.8,30.18,SSE,152,2.0,2.0,89,0.00,,,0.00,meteobridge,2013-11-30 13:48:00,
2013-11-30 07:53:00,25.7,23.0,30.18,SSE,163,0.9,2.9,89,0.00,,,0.00,meteobridge,2013-11-30 13:53:00,
2013-11-30 07:58:00,26.1,23.2,30.18,SSE,163,2.0,2.9,89,0.00,,,0.00,meteobridge,2013-11-30 13:58:00,
2013-11-30 08:03:00,26.4,23.4,30.18,SSE,156,0.9,2.0,88,0.00,,,0.00,meteobridge,2013-11-30 14:03:00,
2013-11-30 08:08:00,27.0,23.9,30.18,SE,146,2.0,2.9,88,0.00,,,0.00,meteobridge,2013-11-30 14:08:00,
2013-11-30 08:13:00,27.3,23.9,30.18,SSE,150,2.9,2.9,87,0.00,,,0.00,meteobridge,2013-11-30 14:13:00,
2013-11-30 08:18:00,27.5,24.1,30.17,SSE,157,0.9,2.9,87,0.00,,,0.00,meteobridge,2013-11-30 14:18:00,
2013-11-30 08:23:00,27.9,24.3,30.17,SSE,156,2.9,2.9,86,0.00,,,0.00,meteobridge,2013-11-30 14:23:00,
2013-11-30 08:28:00,28.0,24.4,30.17,SE,146,0.9,4.0,86,0.00,,,0.00,meteobridge,2013-11-30 14:28:00,
2013-11-30 08:33:00,28.4,24.4,30.17,SSE,149,2.0,2.9,85,0.00,,,0.00,meteobridge,2013-11-30 14:33:00,
2013-11-30 08:38:00,28.6,25.0,30.17,SE,141,0.9,4.0,86,0.00,,,0.00,meteobridge,2013-11-30 14:38:00,
2013-11-30 08:43:00,28.9,25.0,30.17,SSE,158,4.0,4.0,85,0.00,,,0.00,meteobridge,2013-11-30 14:43:00,
2013-11-30 08:48:00,29.1,25.2,30.17,SSE,166,2.9,4.9,85,0.00,,,0.00,meteobridge,2013-11-30 14:48:00,
2013-11-30 08:53:00,29.8,25.9,30.17,SSE,160,0.0,2.9,85,0.00,,,0.00,meteobridge,2013-11-30 14:53:00,
2013-11-30 08:58:00,30.2,26.2,30.16,SSW,204,0.0,2.0,85,0.00,,,0.00,meteobridge,2013-11-30 14:58:00,
2013-11-30 09:03:00,30.7,26.4,30.17,SSW,196,0.9,0.9,84,0.00,,,0.00,meteobridge,2013-11-30 15:03:00,
2013-11-30 09:08:00,31.6,27.1,30.17,South,172,0.9,2.9,83,0.00,,,0.00,meteobridge,2013-11-30 15:08:00,
2013-11-30 09:14:00,32.5,27.7,30.16,South,179,2.9,4.9,82,0.00,,,0.00,meteobridge,2013-11-30 15:14:00,
2013-11-30 09:19:00,33.1,27.5,30.16,SSW,203,0.9,2.9,80,0.00,,,0.00,meteobridge,2013-11-30 15:19:00,
2013-11-30 09:24:00,33.4,27.7,30.16,SW,214,2.0,6.0,79,0.00,,,0.00,meteobridge,2013-11-30 15:24:00,
2013-11-30 09:29:00,33.8,28.0,30.16,SSW,205,4.0,4.0,79,0.00,,,0.00,meteobridge,2013-11-30 15:29:00,
2013-11-30 09:34:00,34.2,28.4,30.16,SSW,201,2.9,4.9,79,0.00,,,0.00,meteobridge,2013-11-30 15:34:00,
2013-11-30 09:39:00,34.3,28.6,30.16,South,187,0.9,6.0,79,0.00,,,0.00,meteobridge,2013-11-30 15:39:00,
2013-11-30 09:44:00,34.5,28.8,30.16,WNW,298,2.0,4.0,79,0.00,,,0.00,meteobridge,2013-11-30 15:44:00,
2013-11-30 09:49:00,34.9,29.1,30.16,West,266,4.0,4.0,79,0.00,,,0.00,meteobridge,2013-11-30 15:49:00,
2013-11-30 09:54:00,35.2,29.1,30.16,WSW,255,2.9,4.0,78,0.00,,,0.00,meteobridge,2013-11-30 15:54:00,
2013-11-30 09:59:00,35.8,29.3,30.16,WSW,237,4.0,4.9,77,0.00,,,0.00,meteobridge,2013-11-30 15:59:00,
2013-11-30 10:04:00,36.0,29.5,30.16,SW,214,4.9,4.9,77,0.00,,,0.00,meteobridge,2013-11-30 16:04:00,
2013-11-30 10:09:00,36.3,29.5,30.15,SSW,209,0.9,4.9,76,0.00,,,0.00,meteobridge,2013-11-30 16:09:00,
2013-11-30 10:14:00,36.7,29.8,30.15,South,188,6.0,6.0,76,0.00,,,0.00,meteobridge,2013-11-30 16:14:00,
2013-11-30 10:19:00,37.0,29.8,30.16,WSW,246,2.0,4.0,75,0.00,,,0.00,meteobridge,2013-11-30 16:19:00,
2013-11-30 10:24:00,37.2,29.7,30.16,WNW,293,4.9,8.9,74,0.00,,,0.00,meteobridge,2013-11-30 16:24:00,
2013-11-30 10:29:00,37.4,29.5,30.15,WSW,245,6.0,8.1,73,0.00,,,0.00,meteobridge,2013-11-30 16:29:00,
2013-11-30 10:34:00,37.6,30.0,30.15,WSW,248,0.9,6.9,74,0.00,,,0.00,meteobridge,2013-11-30 16:34:00,
2013-11-30 10:39:00,37.8,30.2,30.15,West,266,2.9,6.0,74,0.00,,,0.00,meteobridge,2013-11-30 16:39:00,
2013-11-30 10:44:00,38.1,30.2,30.15,WSW,255,4.0,6.9,73,0.00,,,0.00,meteobridge,2013-11-30 16:44:00,
2013-11-30 10:49:00,38.5,30.2,30.15,SW,225,4.0,6.9,72,0.00,,,0.00,meteobridge,2013-11-30 16:49:00,
2013-11-30 10:54:00,38.5,29.8,30.14,West,267,2.9,8.9,71,0.00,,,0.00,meteobridge,2013-11-30 16:54:00,
2013-11-30 10:59:00,38.8,30.6,30.14,SW,224,2.9,4.0,72,0.00,,,0.00,meteobridge,2013-11-30 16:59:00,
2013-11-30 11:04:00,39.2,30.6,30.14,SW,229,4.0,4.9,71,0.00,,,0.00,meteobridge,2013-11-30 17:04:00,
2013-11-30 11:10:00,39.4,30.7,30.13,West,259,2.0,6.0,71,0.00,,,0.00,meteobridge,2013-11-30 17:10:00,
2013-11-30 11:15:00,39.7,30.7,30.13,WSW,252,2.9,6.0,70,0.00,,,0.00,meteobridge,2013-11-30 17:15:00,
2013-11-30 11:20:00,40.1,30.7,30.13,West,278,2.9,6.0,69,0.00,,,0.00,meteobridge,2013-11-30 17:20:00,
2013-11-30 11:25:00,40.3,30.9,30.13,WSW,249,2.9,8.1,69,0.00,,,0.00,meteobridge,2013-11-30 17:25:00,
2013-11-30 11:30:00,40.5,30.7,30.12,WSW,257,4.9,10.1,68,0.00,,,0.00,meteobridge,2013-11-30 17:30:00,
2013-11-30 11:35:00,40.6,30.9,30.12,WSW,245,6.0,6.9,68,0.00,,,0.00,meteobridge,2013-11-30 17:35:00,
2013-11-30 11:40:00,40.8,31.1,30.12,SSW,212,4.9,6.0,68,0.00,,,0.00,meteobridge,2013-11-30 17:40:00,
2013-11-30 11:45:00,41.2,31.5,30.12,WSW,245,4.9,6.9,68,0.00,,,0.00,meteobridge,2013-11-30 17:45:00,
2013-11-30 11:50:00,41.2,31.1,30.12,West,264,0.9,8.9,67,0.00,,,0.00,meteobridge,2013-11-30 17:50:00,
2013-11-30 11:55:00,41.4,31.6,30.12,WSW,240,0.9,2.9,68,0.00,,,0.00,meteobridge,2013-11-30 17:55:00,
2013-11-30 12:00:00,41.7,31.6,30.11,WSW,245,4.9,6.0,67,0.00,,,0.00,meteobridge,2013-11-30 18:00:00,
2013-11-30 12:05:00,41.7,31.6,30.11,SW,224,0.0,6.0,67,0.00,,,0.00,meteobridge,2013-11-30 18:05:00,
2013-11-30 12:10:00,42.1,32.0,30.11,WNW,291,2.0,4.9,67,0.00,,,0.00,meteobridge,2013-11-30 18:10:00,
2013-11-30 12:15:00,42.1,31.5,30.11,NW,308,2.9,6.0,66,0.00,,,0.00,meteobridge,2013-11-30 18:15:00,
2013-11-30 12:20:00,41.9,31.5,30.11,SW,236,2.9,6.0,66,0.00,,,0.00,meteobridge,2013-11-30 18:20:00,
2013-11-30 12:25:00,41.7,31.3,30.11,WSW,252,6.0,8.9,66,0.00,,,0.00,meteobridge,2013-11-30 18:25:00,
2013-11-30 12:30:00,41.9,31.8,30.11,West,267,4.0,8.1,67,0.00,,,0.00,meteobridge,2013-11-30 18:30:00,
2013-11-30 12:38:00,41.9,31.8,30.11,West,264,6.0,8.1,67,0.00,,,0.00,meteobridge,2013-11-30 18:38:00,
2013-11-30 12:43:00,42.1,32.0,30.11,West,266,2.9,6.0,67,0.00,,,0.00,meteobridge,2013-11-30 18:43:00,
2013-11-30 12:48:00,42.4,32.2,30.10,WSW,248,6.9,6.9,67,0.00,,,0.00,meteobridge,2013-11-30 18:48:00,
2013-11-30 12:53:00,42.3,32.2,30.10,WSW,245,2.9,6.0,67,0.00,,,0.00,meteobridge,2013-11-30 18:53:00,
2013-11-30 12:58:00,42.4,32.2,30.10,West,266,0.9,4.9,67,0.00,,,0.00,meteobridge,2013-11-30 18:58:00,
2013-11-30 13:03:00,42.4,32.2,30.10,West,264,2.0,4.9,67,0.00,,,0.00,meteobridge,2013-11-30 19:03:00,
2013-11-30 13:08:00,42.6,32.4,30.09,SW,221,4.9,6.0,67,0.00,,,0.00,meteobridge,2013-11-30 19:08:00,
2013-11-30 13:13:00,42.8,32.5,30.09,SW,222,2.9,4.0,67,0.00,,,0.00,meteobridge,2013-11-30 19:13:00,
2013-11-30 13:18:00,43.0,32.7,30.09,WSW,248,4.0,6.9,67,0.00,,,0.00,meteobridge,2013-11-30 19:18:00,
2013-11-30 13:23:00,43.0,32.7,30.09,West,269,0.9,6.0,67,0.00,,,0.00,meteobridge,2013-11-30 19:23:00,
2013-11-30 13:29:00,43.3,33.1,30.09,WNW,290,4.0,4.9,67,0.00,,,0.00,meteobridge,2013-11-30 19:29:00,
2013-11-30 13:34:00,43.3,33.1,30.09,SSW,208,2.0,8.1,67,0.00,,,0.00,meteobridge,2013-11-30 19:34:00,
2013-11-30 13:39:00,43.5,32.9,30.09,West,280,0.9,2.9,66,0.00,,,0.00,meteobridge,2013-11-30 19:39:00,
2013-11-30 13:44:00,43.7,33.1,30.09,West,259,0.9,8.1,66,0.00,,,0.00,meteobridge,2013-11-30 19:44:00,
2013-11-30 13:49:00,43.9,33.3,30.09,West,266,2.0,6.9,66,0.00,,,0.00,meteobridge,2013-11-30 19:49:00,
2013-11-30 13:54:00,43.9,33.3,30.09,SW,217,2.0,8.1,66,0.00,,,0.00,meteobridge,2013-11-30 19:54:00,
2013-11-30 13:59:00,44.1,33.4,30.08,West,263,4.0,10.1,66,0.00,,,0.00,meteobridge,2013-11-30 19:59:00,
2013-11-30 14:04:00,44.1,33.4,30.08,West,262,2.9,11.0,66,0.00,,,0.00,meteobridge,2013-11-30 20:04:00,
2013-11-30 14:09:00,44.1,33.4,30.09,West,278,6.0,8.1,66,0.00,,,0.00,meteobridge,2013-11-30 20:09:00,
2013-11-30 14:14:00,44.2,33.6,30.09,SW,228,2.0,11.0,66,0.00,,,0.00,meteobridge,2013-11-30 20:14:00,
2013-11-30 14:19:00,44.2,33.6,30.09,SW,224,4.0,6.9,66,0.00,,,0.00,meteobridge,2013-11-30 20:19:00,
2013-11-30 14:24:00,44.2,33.6,30.09,West,271,2.9,6.9,66,0.00,,,0.00,meteobridge,2013-11-30 20:24:00,
2013-11-30 14:29:00,44.4,33.8,30.08,SW,232,4.0,8.9,66,0.00,,,0.00,meteobridge,2013-11-30 20:29:00,
2013-11-30 14:34:00,44.8,33.8,30.08,WSW,250,6.0,6.0,65,0.00,,,0.00,meteobridge,2013-11-30 20:34:00,
2013-11-30 14:39:00,44.8,33.8,30.08,West,262,6.9,8.1,65,0.00,,,0.00,meteobridge,2013-11-30 20:39:00,
2013-11-30 14:44:00,44.6,33.6,30.08,West,281,2.0,4.9,65,0.00,,,0.00,meteobridge,2013-11-30 20:44:00,
2013-11-30 14:49:00,44.8,33.8,30.09,WSW,239,4.0,6.0,65,0.00,,,0.00,meteobridge,2013-11-30 20:49:00,
2013-11-30 14:54:00,44.8,34.2,30.09,WSW,250,6.0,8.1,66,0.00,,,0.00,meteobridge,2013-11-30 20:54:00,
2013-11-30 14:59:00,44.8,34.2,30.09,WNW,295,2.0,4.9,66,0.00,,,0.00,meteobridge,2013-11-30 20:59:00,
2013-11-30 15:04:00,45.0,34.0,30.09,West,261,2.9,6.0,65,0.00,,,0.00,meteobridge,2013-11-30 21:04:00,
2013-11-30 15:09:00,45.0,34.3,30.09,WSW,256,4.0,4.0,66,0.00,,,0.00,meteobridge,2013-11-30 21:09:00,
2013-11-30 15:15:00,45.0,34.3,30.09,WNW,291,6.0,6.0,66,0.00,,,0.00,meteobridge,2013-11-30 21:15:00,
2013-11-30 15:20:00,44.8,34.2,30.09,SW,224,2.9,6.9,66,0.00,,,0.00,meteobridge,2013-11-30 21:20:00,
2013-11-30 15:25:00,44.8,34.2,30.09,West,264,4.9,4.9,66,0.00,,,0.00,meteobridge,2013-11-30 21:25:00,
2013-11-30 15:30:00,44.8,34.2,30.09,WSW,255,2.0,4.0,66,0.00,,,0.00,meteobridge,2013-11-30 21:30:00,
2013-11-30 15:35:00,44.8,34.2,30.09,WSW,242,0.0,4.9,66,0.00,,,0.00,meteobridge,2013-11-30 21:35:00,
2013-11-30 15:40:00,44.8,34.2,30.09,WSW,250,0.9,4.9,66,0.00,,,0.00,meteobridge,2013-11-30 21:40:00,
2013-11-30 15:45:00,44.8,34.2,30.09,WSW,256,2.9,4.0,66,0.00,,,0.00,meteobridge,2013-11-30 21:45:00,
2013-11-30 15:50:00,44.8,34.5,30.09,West,260,2.9,4.9,67,0.00,,,0.00,meteobridge,2013-11-30 21:50:00,
2013-11-30 15:55:00,44.4,34.2,30.09,SW,224,2.0,4.9,67,0.00,,,0.00,meteobridge,2013-11-30 21:55:00,
2013-11-30 16:00:00,44.4,34.2,30.09,WNW,284,0.0,2.9,67,0.00,,,0.00,meteobridge,2013-11-30 22:00:00,
2013-11-30 16:05:00,44.1,34.2,30.09,West,278,0.0,4.0,68,0.00,,,0.00,meteobridge,2013-11-30 22:05:00,
2013-11-30 16:10:00,43.5,34.0,30.09,WSW,256,0.0,0.9,69,0.00,,,0.00,meteobridge,2013-11-30 22:10:00,
2013-11-30 16:15:00,43.3,33.8,30.09,West,260,0.0,0.9,69,0.00,,,0.00,meteobridge,2013-11-30 22:15:00,
2013-11-30 16:20:00,43.0,33.8,30.09,West,281,0.0,0.9,70,0.00,,,0.00,meteobridge,2013-11-30 22:20:00,
2013-11-30 16:25:00,42.4,33.6,30.09,West,271,0.9,0.9,71,0.00,,,0.00,meteobridge,2013-11-30 22:25:00,
2013-11-30 16:30:00,42.3,33.8,30.09,NW,326,0.0,0.9,72,0.00,,,0.00,meteobridge,2013-11-30 22:30:00,
2013-11-30 16:36:00,41.7,33.4,30.09,NW,326,0.0,0.0,72,0.00,,,0.00,meteobridge,2013-11-30 22:36:00,
2013-11-30 16:41:00,41.4,33.4,30.09,NW,326,0.0,0.0,73,0.00,,,0.00,meteobridge,2013-11-30 22:41:00,
2013-11-30 16:46:00,40.8,33.3,30.10,NW,326,0.0,0.0,74,0.00,,,0.00,meteobridge,2013-11-30 22:46:00,
2013-11-30 16:51:00,40.3,33.1,30.10,NW,326,0.0,0.0,75,0.00,,,0.00,meteobridge,2013-11-30 22:51:00,
2013-11-30 16:56:00,39.7,32.7,30.10,NW,326,0.0,0.0,76,0.00,,,0.00,meteobridge,2013-11-30 22:56:00,
2013-11-30 17:02:00,39.0,32.4,30.10,NW,326,0.0,0.0,77,0.00,,,0.00,meteobridge,2013-11-30 23:02:00,
2013-11-30 17:07:00,38.1,31.8,30.10,NW,326,0.0,0.0,78,0.00,,,0.00,meteobridge,2013-11-30 23:07:00,
2013-11-30 17:12:00,37.2,31.6,30.10,NW,326,0.0,0.0,80,0.00,,,0.00,meteobridge,2013-11-30 23:12:00,
2013-11-30 17:17:00,36.9,31.8,30.10,NW,326,0.0,0.0,82,0.00,,,0.00,meteobridge,2013-11-30 23:17:00,
2013-11-30 17:22:00,36.3,31.3,30.11,NW,326,0.0,0.0,82,0.00,,,0.00,meteobridge,2013-11-30 23:22:00,
2013-11-30 17:27:00,36.0,31.6,30.11,NW,326,0.0,0.0,84,0.00,,,0.00,meteobridge,2013-11-30 23:27:00,
2013-11-30 17:32:00,35.8,31.6,30.11,NW,326,0.0,0.0,85,0.00,,,0.00,meteobridge,2013-11-30 23:32:00,
2013-11-30 17:38:00,36.0,31.8,30.11,NW,326,0.0,0.0,85,0.00,,,0.00,meteobridge,2013-11-30 23:38:00,
2013-11-30 17:43:00,36.0,31.6,30.11,NW,326,0.0,0.0,84,0.00,,,0.00,meteobridge,2013-11-30 23:43:00,
2013-11-30 17:48:00,35.8,31.6,30.11,NW,326,0.0,0.0,85,0.00,,,0.00,meteobridge,2013-11-30 23:48:00,
2013-11-30 17:54:00,35.4,31.3,30.11,NW,326,0.0,0.0,85,0.00,,,0.00,meteobridge,2013-11-30 23:54:00,
2013-11-30 17:59:00,35.1,30.9,30.11,NW,326,0.0,0.0,85,0.00,,,0.00,meteobridge,2013-11-30 23:59:00,
2013-11-30 18:04:00,34.5,30.6,30.12,NW,326,0.0,0.0,85,0.00,,,0.00,meteobridge,2013-12-01 00:04:00,
2013-11-30 18:10:00,34.5,31.1,30.11,NW,326,0.0,0.0,87,0.00,,,0.00,meteobridge,2013-12-01 00:10:00,
2013-11-30 18:15:00,34.3,31.1,30.11,NW,326,0.0,0.0,88,0.00,,,0.00,meteobridge,2013-12-01 00:15:00,
2013-11-30 18:20:00,34.3,30.9,30.12,NW,326,0.0,0.0,87,0.00,,,0.00,meteobridge,2013-12-01 00:20:00,
2013-11-30 18:25:00,34.0,30.6,30.12,NW,326,0.0,0.0,87,0.00,,,0.00,meteobridge,2013-12-01 00:25:00,
2013-11-30 18:30:00,33.8,30.6,30.12,NW,326,0.0,0.0,88,0.00,,,0.00,meteobridge,2013-12-01 00:30:00,
2013-11-30 18:36:00,33.8,30.9,30.12,NW,326,0.0,0.0,89,0.00,,,0.00,meteobridge,2013-12-01 00:36:00,
2013-11-30 18:41:00,33.6,30.4,30.12,NW,326,0.0,0.0,88,0.00,,,0.00,meteobridge,2013-12-01 00:41:00,
2013-11-30 18:46:00,33.4,30.6,30.12,NW,326,0.0,0.0,89,0.00,,,0.00,meteobridge,2013-12-01 00:46:00,
2013-11-30 18:51:00,33.3,30.0,30.12,NW,326,0.0,0.0,88,0.00,,,0.00,meteobridge,2013-12-01 00:51:00,
2013-11-30 18:56:00,33.1,30.4,30.12,NW,326,0.0,0.0,90,0.00,,,0.00,meteobridge,2013-12-01 00:56:00,
2013-11-30 19:01:00,33.3,30.4,30.12,NW,326,0.0,0.0,89,0.00,,,0.00,meteobridge,2013-12-01 01:01:00,
2013-11-30 19:07:00,33.4,30.6,30.12,NW,326,0.0,0.0,89,0.00,,,0.00,meteobridge,2013-12-01 01:07:00,
2013-11-30 19:12:00,33.4,30.2,30.12,NW,319,0.0,0.0,88,0.00,,,0.00,meteobridge,2013-12-01 01:12:00,
2013-11-30 19:17:00,33.8,30.6,30.12,WSW,257,0.0,0.0,88,0.00,,,0.00,meteobridge,2013-12-01 01:17:00,
2013-11-30 19:22:00,34.2,30.9,30.12,West,270,0.0,0.9,88,0.00,,,0.00,meteobridge,2013-12-01 01:22:00,
2013-11-30 19:27:00,34.3,31.1,30.12,West,280,0.0,0.9,88,0.00,,,0.00,meteobridge,2013-12-01 01:27:00,
2013-11-30 19:33:00,34.5,31.1,30.13,West,281,0.0,0.9,87,0.00,,,0.00,meteobridge,2013-12-01 01:33:00,
2013-11-30 19:38:00,34.5,30.7,30.13,WNW,283,0.0,0.9,86,0.00,,,0.00,meteobridge,2013-12-01 01:38:00,
2013-11-30 19:43:00,34.5,30.7,30.12,WNW,283,0.0,0.0,86,0.00,,,0.00,meteobridge,2013-12-01 01:43:00,
2013-11-30 19:44:00,34.5,30.7,30.12,WNW,283,0.0,0.0,86,0.00,,,0.00,meteobridge,2013-12-01 01:44:00,
2013-11-30 19:49:00,34.5,30.7,30.12,WNW,283,0.0,0.0,86,0.00,,,0.00,meteobridge,2013-12-01 01:49:00,
2013-11-30 19:54:00,34.3,30.9,30.12,WNW,283,0.0,0.0,87,0.00,,,0.00,meteobridge,2013-12-01 01:54:00,
2013-11-30 20:00:00,34.3,30.6,30.12,WNW,283,0.0,0.0,86,0.00,,,0.00,meteobridge,2013-12-01 02:00:00,
2013-11-30 20:05:00,34.2,30.4,30.12,WNW,283,0.0,0.0,86,0.00,,,0.00,meteobridge,2013-12-01 02:05:00,
2013-11-30 20:10:00,33.8,30.4,30.13,WNW,283,0.0,0.0,87,0.00,,,0.00,meteobridge,2013-12-01 02:10:00,
2013-11-30 20:15:00,33.4,30.0,30.12,WNW,283,0.0,0.0,87,0.00,,,0.00,meteobridge,2013-12-01 02:15:00,
2013-11-30 20:20:00,33.3,30.0,30.12,WNW,283,0.0,0.0,88,0.00,,,0.00,meteobridge,2013-12-01 02:20:00,
2013-11-30 20:26:00,33.1,29.8,30.13,WNW,283,0.0,0.0,88,0.00,,,0.00,meteobridge,2013-12-01 02:26:00,
2013-11-30 20:31:00,32.7,29.8,30.13,WNW,283,0.0,0.0,89,0.00,,,0.00,meteobridge,2013-12-01 02:31:00,
2013-11-30 20:36:00,32.5,29.3,30.13,WNW,283,0.0,0.0,88,0.00,,,0.00,meteobridge,2013-12-01 02:36:00,
2013-11-30 20:41:00,32.4,29.5,30.13,WNW,283,0.0,0.0,89,0.00,,,0.00,meteobridge,2013-12-01 02:41:00,
2013-11-30 20:46:00,32.2,29.3,30.13,WNW,283,0.0,0.0,89,0.00,,,0.00,meteobridge,2013-12-01 02:46:00,
2013-11-30 20:51:00,31.6,28.8,30.14,WNW,283,0.0,0.0,89,0.00,,,0.00,meteobridge,2013-12-01 02:51:00,
2013-11-30 20:57:00,31.5,28.9,30.14,WNW,283,0.0,0.0,90,0.00,,,0.00,meteobridge,2013-12-01 02:57:00,
2013-11-30 21:02:00,31.5,29.1,30.14,WNW,283,0.0,0.0,91,0.00,,,0.00,meteobridge,2013-12-01 03:02:00,
2013-11-30 21:07:00,31.5,28.9,30.14,WNW,283,0.0,0.0,90,0.00,,,0.00,meteobridge,2013-12-01 03:07:00,
2013-11-30 21:12:00,31.3,28.9,30.14,WNW,283,0.0,0.0,91,0.00,,,0.00,meteobridge,2013-12-01 03:12:00,
2013-11-30 21:17:00,31.3,28.9,30.14,WNW,283,0.0,0.0,91,0.00,,,0.00,meteobridge,2013-12-01 03:17:00,
2013-11-30 21:22:00,31.1,28.6,30.14,WNW,283,0.0,0.0,90,0.00,,,0.00,meteobridge,2013-12-01 03:22:00,
2013-11-30 21:27:00,30.7,28.4,30.14,WNW,283,0.0,0.0,91,0.00,,,0.00,meteobridge,2013-12-01 03:27:00,
2013-11-30 21:32:00,30.7,28.4,30.14,WNW,283,0.0,0.0,91,0.00,,,0.00,meteobridge,2013-12-01 03:32:00,
2013-11-30 21:38:00,30.9,28.6,30.14,WNW,283,0.0,0.0,91,0.00,,,0.00,meteobridge,2013-12-01 03:38:00,
2013-11-30 21:43:00,30.9,28.4,30.14,WNW,283,0.0,0.0,90,0.00,,,0.00,meteobridge,2013-12-01 03:43:00,
2013-11-30 21:48:00,30.7,28.2,30.14,WNW,283,0.0,0.0,90,0.00,,,0.00,meteobridge,2013-12-01 03:48:00,
2013-11-30 21:53:00,30.9,28.6,30.14,WNW,283,0.0,0.0,91,0.00,,,0.00,meteobridge,2013-12-01 03:53:00,
2013-11-30 21:58:00,31.1,28.6,30.14,WNW,283,0.0,0.0,90,0.00,,,0.00,meteobridge,2013-12-01 03:58:00,
2013-11-30 22:04:00,31.3,28.9,30.14,WNW,283,0.0,0.0,91,0.00,,,0.00,meteobridge,2013-12-01 04:04:00,
2013-11-30 22:09:00,31.5,28.6,30.14,WNW,283,0.0,0.0,89,0.00,,,0.00,meteobridge,2013-12-01 04:09:00,
2013-11-30 22:14:00,31.3,28.4,30.14,WNW,283,0.0,0.0,89,0.00,,,0.00,meteobridge,2013-12-01 04:14:00,
2013-11-30 22:19:00,30.9,28.0,30.14,WNW,283,0.0,0.0,89,0.00,,,0.00,meteobridge,2013-12-01 04:19:00,
2013-11-30 22:24:00,30.7,27.9,30.14,WNW,283,0.0,0.0,89,0.00,,,0.00,meteobridge,2013-12-01 04:24:00,
2013-11-30 22:29:00,30.6,27.7,30.14,WNW,283,0.0,0.0,89,0.00,,,0.00,meteobridge,2013-12-01 04:29:00,
2013-11-30 22:34:00,30.0,27.1,30.14,WNW,283,0.0,0.0,89,0.00,,,0.00,meteobridge,2013-12-01 04:34:00,
2013-11-30 22:40:00,30.0,27.5,30.14,WNW,283,0.0,0.0,90,0.00,,,0.00,meteobridge,2013-12-01 04:40:00,
2013-11-30 22:45:00,30.0,27.5,30.14,WNW,283,0.0,0.0,90,0.00,,,0.00,meteobridge,2013-12-01 04:45:00,
2013-11-30 22:50:00,29.8,27.3,30.14,WNW,283,0.0,0.0,90,0.00,,,0.00,meteobridge,2013-12-01 04:50:00,
2013-11-30 22:55:00,29.7,27.1,30.14,WNW,283,0.0,0.0,90,0.00,,,0.00,meteobridge,2013-12-01 04:55:00,
2013-11-30 23:01:00,29.1,26.6,30.14,WNW,283,0.0,0.0,90,0.00,,,0.00,meteobridge,2013-12-01 05:01:00,
2013-11-30 23:03:00,28.9,26.6,30.14,WNW,283,0.0,0.0,91,0.00,,,0.00,meteobridge,2013-12-01 05:03:00,
2013-11-30 23:05:00,28.9,26.6,30.14,WNW,283,0.0,0.0,91,0.00,,,0.00,meteobridge,2013-12-01 05:05:00,
2013-11-30 23:10:00,28.8,26.8,30.15,WNW,283,0.0,0.0,92,0.00,,,0.00,meteobridge,2013-12-01 05:10:00,
2013-11-30 23:15:00,29.1,27.3,30.16,West,260,0.0,0.0,93,0.00,,,0.00,meteobridge,2013-12-01 05:15:00,
2013-11-30 23:21:00,29.5,27.1,30.15,West,260,0.0,0.0,91,0.00,,,0.00,meteobridge,2013-12-01 05:21:00,
2013-11-30 23:26:00,29.5,27.1,30.16,West,260,0.0,0.0,91,0.00,,,0.00,meteobridge,2013-12-01 05:26:00,
2013-11-30 23:31:00,29.7,27.7,30.16,NW,311,0.0,0.9,92,0.00,,,0.00,meteobridge,2013-12-01 05:31:00,
2013-11-30 23:36:00,30.2,27.9,30.16,NW,311,0.0,0.9,91,0.00,,,0.00,meteobridge,2013-12-01 05:36:00,
2013-11-30 23:41:00,30.7,28.2,30.15,NW,313,0.0,2.0,90,0.00,,,0.00,meteobridge,2013-12-01 05:41:00,
2013-11-30 23:46:00,31.3,28.4,30.16,NNW,344,0.0,0.0,89,0.00,,,0.00,meteobridge,2013-12-01 05:46:00,
2013-11-30 23:51:00,31.6,28.6,30.15,NW,320,0.9,2.0,88,0.00,,,0.00,meteobridge,2013-12-01 05:51:00,
2013-11-30 23:56:00,32.0,28.6,30.15,NW,316,0.0,0.0,87,0.00,,,0.00,meteobridge,2013-12-01 05:56:00,